createdAt,value
2022-12-01T00:01:19.744Z,85.95
2022-12-01T00:03:47.617Z,86.46
2022-12-01T00:06:17.841Z,85.90
2022-12-01T00:09:07.500Z,86.37
2022-12-01T00:11:35.702Z,86.58
2022-12-01T00:14:03.692Z,86.37
2022-12-01T00:16:32.987Z,86.50
2022-12-01T00:19:00.978Z,86.43
2022-12-01T00:21:29.325Z,86.56
2022-12-01T00:23:58.923Z,87.13
2022-12-01T00:26:27.951Z,86.84
2022-12-01T00:28:56.914Z,86.88
2022-12-01T00:31:24.962Z,87.28
2022-12-01T00:33:54.515Z,86.86
2022-12-01T00:36:23.929Z,86.71
2022-12-01T00:38:53.692Z,86.63
2022-12-01T00:41:22.014Z,87.38
2022-12-01T00:43:51.216Z,86.63
2022-12-01T00:46:20.045Z,87.10
2022-12-01T00:48:48.028Z,86.38
2022-12-01T00:51:17.214Z,86.80
2022-12-01T00:53:45.937Z,87.11
2022-12-01T00:56:13.796Z,86.46
2022-12-01T00:58:41.669Z,87.07
2022-12-01T01:01:09.609Z,86.18
2022-12-01T01:03:37.847Z,87.04
2022-12-01T01:06:07.746Z,87.13
2022-12-01T01:08:37.719Z,86.25
2022-12-01T01:11:07.698Z,86.70
2022-12-01T01:13:37.033Z,86.65
2022-12-01T01:16:07.229Z,86.87
2022-12-01T01:18:35.803Z,87.18
2022-12-01T01:21:05.869Z,86.41
2022-12-01T01:23:33.912Z,86.98
2022-12-01T01:26:05.214Z,86.80
2022-12-01T01:28:33.293Z,87.25
2022-12-01T01:31:01.589Z,86.84
2022-12-01T01:33:31.130Z,86.88
2022-12-01T01:36:00.234Z,87.74
2022-12-01T01:38:28.314Z,87.21
2022-12-01T01:40:56.540Z,87.73
2022-12-01T01:46:19.955Z,86.68
2022-12-01T01:48:51.977Z,86.96
2022-12-01T01:51:23.996Z,86.69
2022-12-01T01:53:55.530Z,86.69
2022-12-01T01:56:24.150Z,86.31
2022-12-01T01:58:53.468Z,86.46
2022-12-01T02:01:22.867Z,86.44
2022-12-01T02:03:55.186Z,86.10
2022-12-01T02:06:24.708Z,86.14
2022-12-01T02:08:52.781Z,86.48
2022-12-01T02:11:58.035Z,86.07
2022-12-01T02:14:49.289Z,85.84
2022-12-01T02:17:30.384Z,85.98
2022-12-01T02:20:23.748Z,86.08
2022-12-01T02:23:09.744Z,85.99
2022-12-01T02:25:49.363Z,86.25
2022-12-01T02:28:36.158Z,85.11
2022-12-01T02:31:15.115Z,85.15
2022-12-01T02:33:52.476Z,85.62
2022-12-01T02:36:29.566Z,85.88
2022-12-01T02:39:04.815Z,85.26
2022-12-01T02:41:38.629Z,85.31
2022-12-01T02:44:14.714Z,85.28
2022-12-01T02:46:51.384Z,84.25
2022-12-01T02:49:25.042Z,84.86
2022-12-01T02:51:55.575Z,84.65
2022-12-01T02:54:24.820Z,84.48
2022-12-01T02:56:53.930Z,85.24
2022-12-01T02:59:21.748Z,85.10
2022-12-01T03:02:02.011Z,84.19
2022-12-01T03:04:47.712Z,84.06
2022-12-01T03:07:33.276Z,85.07
2022-12-01T03:10:10.462Z,84.67
2022-12-01T03:12:43.137Z,85.42
2022-12-01T03:15:19.546Z,85.20
2022-12-01T03:18:04.304Z,84.14
2022-12-01T03:20:36.480Z,84.65
2022-12-01T03:23:09.795Z,84.45
2022-12-01T03:25:40.910Z,84.63
2022-12-01T03:28:25.095Z,84.15
2022-12-01T03:30:58.831Z,85.07
2022-12-01T03:33:35.002Z,84.57
2022-12-01T03:36:08.240Z,83.80
2022-12-01T03:38:38.510Z,84.98
2022-12-01T03:41:12.081Z,84.13
2022-12-01T03:43:42.880Z,83.75
2022-12-01T03:46:17.731Z,84.55
2022-12-01T03:48:47.815Z,84.77
2022-12-01T03:51:22.206Z,84.36
2022-12-01T03:53:55.892Z,84.80
2022-12-01T03:56:30.616Z,84.64
2022-12-01T03:59:01.616Z,84.60
2022-12-01T04:01:32.728Z,83.96
2022-12-01T04:04:07.249Z,84.06
2022-12-01T04:06:36.025Z,83.99
2022-12-01T04:09:04.292Z,83.99
2022-12-01T04:11:49.789Z,83.58
2022-12-01T04:14:17.689Z,84.62
2022-12-01T04:16:45.579Z,83.59
2022-12-01T04:19:14.949Z,84.13
2022-12-01T04:21:42.815Z,84.66
2022-12-01T04:24:10.696Z,84.38
2022-12-01T04:26:38.732Z,84.52
2022-12-01T04:29:09.465Z,85.15
2022-12-01T04:31:37.907Z,84.67
2022-12-01T04:34:06.053Z,84.69
2022-12-01T04:36:36.265Z,85.03
2022-12-01T04:39:04.936Z,83.83
2022-12-01T04:41:32.822Z,84.63
2022-12-01T04:44:00.661Z,85.21
2022-12-01T04:46:28.772Z,84.55
2022-12-01T04:48:56.699Z,84.43
2022-12-01T04:51:24.953Z,84.59
2022-12-01T04:53:54.189Z,85.21
2022-12-01T04:56:22.606Z,84.80
2022-12-01T04:58:50.542Z,85.09
2022-12-01T05:01:19.568Z,85.09
2022-12-01T05:03:50.200Z,84.15
2022-12-01T05:06:19.959Z,85.56
2022-12-01T05:08:47.956Z,84.87
2022-12-01T05:11:18.135Z,84.99
2022-12-01T05:13:48.171Z,85.18
2022-12-01T05:16:17.823Z,85.89
2022-12-01T05:18:50.359Z,84.37
2022-12-01T05:21:18.306Z,85.60
2022-12-01T05:23:46.530Z,85.90
2022-12-01T05:26:14.454Z,84.06
2022-12-01T05:28:43.681Z,84.61
2022-12-01T05:31:11.575Z,84.96
2022-12-01T05:33:39.570Z,84.49
2022-12-01T05:36:09.475Z,84.98
2022-12-01T05:38:37.795Z,84.29
2022-12-01T05:41:05.911Z,84.58
2022-12-01T05:43:33.861Z,85.08
2022-12-01T05:46:03.327Z,84.57
2022-12-01T05:48:31.302Z,84.93
2022-12-01T05:50:59.231Z,85.38
2022-12-01T05:53:27.244Z,85.06
2022-12-01T05:55:55.872Z,85.67
2022-12-01T05:58:23.997Z,85.49
2022-12-01T06:00:51.864Z,84.69
2022-12-01T06:03:21.138Z,85.13
2022-12-01T06:05:48.977Z,85.02
2022-12-01T06:08:17.112Z,84.66
2022-12-01T06:10:45.592Z,84.50
2022-12-01T06:13:13.581Z,84.64
2022-12-01T06:15:41.419Z,85.51
2022-12-01T06:18:09.729Z,84.97
2022-12-01T06:20:38.900Z,84.39
2022-12-01T06:23:06.783Z,85.11
2022-12-01T06:25:34.691Z,85.37
2022-12-01T06:28:02.816Z,85.37
2022-12-01T06:30:30.668Z,85.14
2022-12-01T06:32:58.557Z,86.08
2022-12-01T06:35:26.488Z,85.24
2022-12-01T06:37:55.882Z,85.33
2022-12-01T06:40:23.861Z,85.95
2022-12-01T06:42:51.793Z,85.10
2022-12-01T06:45:19.821Z,85.90
2022-12-01T06:47:48.455Z,86.19
2022-12-01T06:50:16.398Z,85.66
2022-12-01T06:52:44.346Z,85.40
2022-12-01T06:55:13.781Z,85.83
2022-12-01T06:57:43.231Z,86.47
2022-12-01T07:00:13.477Z,86.27
2022-12-01T07:02:41.955Z,86.50
2022-12-01T07:05:10.587Z,86.84
2022-12-01T07:07:39.441Z,87.61
2022-12-01T07:10:08.984Z,87.21
2022-12-01T07:12:38.325Z,86.53
2022-12-01T07:15:07.977Z,87.17
2022-12-01T07:17:35.970Z,87.57
2022-12-01T07:20:04.151Z,87.04
2022-12-01T07:22:32.955Z,87.51
2022-12-01T07:25:01.125Z,86.56
2022-12-01T07:27:31.096Z,86.98
2022-12-01T07:30:00.475Z,87.35
2022-12-01T07:32:28.339Z,86.59
2022-12-01T07:34:56.175Z,86.51
2022-12-01T07:37:24.053Z,86.29
2022-12-01T07:39:51.957Z,85.78
2022-12-01T07:42:19.830Z,85.89
2022-12-01T07:44:47.674Z,87.15
2022-12-01T07:47:17.006Z,85.67
2022-12-01T07:49:44.884Z,86.05
2022-12-01T07:52:12.822Z,86.72
2022-12-01T07:54:40.741Z,86.07
2022-12-01T07:57:08.594Z,86.27
2022-12-01T07:59:36.469Z,87.64
2022-12-01T08:02:04.354Z,86.63
2022-12-01T08:04:33.560Z,86.31
2022-12-01T08:07:01.425Z,86.25
2022-12-01T08:09:29.308Z,87.38
2022-12-01T08:11:57.201Z,86.82
2022-12-01T08:14:24.983Z,86.54
2022-12-01T08:16:52.874Z,85.96
2022-12-01T08:19:20.782Z,86.03
2022-12-01T08:21:50.073Z,86.33
2022-12-01T08:24:18.059Z,86.30
2022-12-01T08:26:45.932Z,87.12
2022-12-01T08:29:19.720Z,86.82
2022-12-01T08:31:48.128Z,86.28
2022-12-01T08:34:16.022Z,86.20
2022-12-01T08:36:43.905Z,86.98
2022-12-01T08:39:13.145Z,87.13
2022-12-01T08:41:41.280Z,86.41
2022-12-01T08:44:10.812Z,86.25
2022-12-01T08:46:39.259Z,86.64
2022-12-01T08:49:07.970Z,87.08
2022-12-01T08:51:36.378Z,86.79
2022-12-01T08:54:04.626Z,86.32
2022-12-01T08:56:36.849Z,86.28
2022-12-01T08:59:05.811Z,86.50
2022-12-01T09:01:34.223Z,86.53
2022-12-01T09:04:09.063Z,86.03
2022-12-01T09:06:40.787Z,86.21
2022-12-01T09:09:13.362Z,86.14
2022-12-01T09:11:43.824Z,86.37
2022-12-01T09:14:12.178Z,85.58
2022-12-01T09:16:40.638Z,86.34
2022-12-01T09:19:08.604Z,86.05
2022-12-01T09:21:38.094Z,86.00
2022-12-01T09:24:08.020Z,85.90
2022-12-01T09:26:35.977Z,87.06
2022-12-01T09:29:08.664Z,86.09
2022-12-01T09:31:37.038Z,86.02
2022-12-01T09:34:06.570Z,86.32
2022-12-01T09:36:36.304Z,86.90
2022-12-01T09:39:05.267Z,86.26
2022-12-01T09:41:36.656Z,86.55
2022-12-01T09:44:14.371Z,86.46
2022-12-01T09:46:45.868Z,86.17
2022-12-01T09:49:18.670Z,86.53
2022-12-01T09:51:47.013Z,87.07
2022-12-01T09:54:15.674Z,86.95
2022-12-01T09:56:46.857Z,86.83
2022-12-01T09:59:22.478Z,86.42
2022-12-01T10:01:54.727Z,87.27
2022-12-01T10:04:29.246Z,87.15
2022-12-01T10:07:02.316Z,85.68
2022-12-01T10:09:39.265Z,86.99
2022-12-01T10:12:14.993Z,87.34
2022-12-01T10:14:46.381Z,87.82
2022-12-01T10:17:26.299Z,88.14
2022-12-01T10:20:00.860Z,87.01
2022-12-01T10:22:50.975Z,87.54
2022-12-01T10:25:23.550Z,87.54
2022-12-01T10:28:05.749Z,88.57
2022-12-01T10:30:41.447Z,88.54
2022-12-01T10:33:20.266Z,88.36
2022-12-01T10:35:48.148Z,88.80
2022-12-01T10:38:25.303Z,88.38
2022-12-01T10:40:54.714Z,87.20
2022-12-01T10:43:28.774Z,88.27
2022-12-01T10:46:01.132Z,87.99
2022-12-01T10:48:29.170Z,87.70
2022-12-01T10:51:14.681Z,88.28
2022-12-01T10:53:42.603Z,88.09
2022-12-01T10:56:15.023Z,87.89
2022-12-01T10:58:48.112Z,89.10
2022-12-01T11:01:21.583Z,89.10
2022-12-01T11:03:56.989Z,88.52
2022-12-01T11:06:29.173Z,89.51
2022-12-01T11:08:59.479Z,89.27
2022-12-01T11:11:34.021Z,88.96
2022-12-01T11:14:04.651Z,88.54
2022-12-01T11:16:40.408Z,88.98
2022-12-01T11:19:11.103Z,88.09
2022-12-01T11:21:47.705Z,88.50
2022-12-01T11:24:29.002Z,88.04
2022-12-01T11:26:58.541Z,89.56
2022-12-01T11:29:33.053Z,87.82
2022-12-01T11:32:03.580Z,89.12
2022-12-01T11:34:35.442Z,89.33
2022-12-01T11:37:07.687Z,87.89
2022-12-01T11:39:38.834Z,88.21
2022-12-01T11:42:16.865Z,88.63
2022-12-01T11:44:52.138Z,87.96
2022-12-01T11:47:24.760Z,88.17
2022-12-01T11:49:55.105Z,87.37
2022-12-01T11:52:27.246Z,87.77
2022-12-01T11:55:04.407Z,88.11
2022-12-01T11:57:38.617Z,88.09
2022-12-01T12:00:14.703Z,87.00
2022-12-01T12:02:54.637Z,88.19
2022-12-01T12:05:45.356Z,87.50
2022-12-01T12:08:25.625Z,86.33
2022-12-01T12:11:03.202Z,86.96
2022-12-01T12:14:04.069Z,87.07
2022-12-01T12:16:44.279Z,86.72
2022-12-01T12:19:34.013Z,86.75
2022-12-01T12:22:20.234Z,86.71
2022-12-01T12:25:02.519Z,87.19
2022-12-01T12:27:41.059Z,86.50
2022-12-01T12:30:29.754Z,86.23
2022-12-01T12:33:20.700Z,86.65
2022-12-01T12:35:56.988Z,87.41
2022-12-01T12:38:57.895Z,86.65
2022-12-01T12:41:34.738Z,85.90
2022-12-01T12:44:25.073Z,85.46
2022-12-01T12:47:03.439Z,86.72
2022-12-01T12:49:40.216Z,85.96
2022-12-01T12:52:14.112Z,86.03
2022-12-01T12:54:48.868Z,86.65
2022-12-01T12:57:30.571Z,86.02
2022-12-01T13:00:05.856Z,85.48
2022-12-01T13:02:40.659Z,85.97
2022-12-01T13:05:15.901Z,85.41
2022-12-01T13:07:50.344Z,84.48
2022-12-01T13:10:28.093Z,85.19
2022-12-01T13:13:02.602Z,84.62
2022-12-01T13:15:31.597Z,84.54
2022-12-01T13:18:05.647Z,84.46
2022-12-01T13:20:37.655Z,85.04
2022-12-01T13:23:10.003Z,84.47
2022-12-01T13:25:41.007Z,84.87
2022-12-01T13:28:28.428Z,84.52
2022-12-01T13:31:05.856Z,84.81
2022-12-01T13:33:37.289Z,85.21
2022-12-01T13:39:03.691Z,84.64
2022-12-01T13:41:34.300Z,84.99
2022-12-01T13:44:05.516Z,84.88
2022-12-01T13:46:52.036Z,85.64
2022-12-01T13:49:42.138Z,85.26
2022-12-01T13:52:29.284Z,85.25
2022-12-01T13:55:21.692Z,84.50
2022-12-01T13:57:51.309Z,85.72
2022-12-01T14:00:26.123Z,85.41
2022-12-01T14:03:30.700Z,85.71
2022-12-01T14:06:09.642Z,84.56
2022-12-01T14:08:45.275Z,85.00
2022-12-01T14:11:22.426Z,85.02
2022-12-01T14:13:56.093Z,85.27
2022-12-01T14:16:24.680Z,86.00
2022-12-01T14:18:57.121Z,84.88
2022-12-01T14:21:46.904Z,85.44
2022-12-01T14:24:28.448Z,84.95
2022-12-01T14:26:58.040Z,85.32
2022-12-01T14:29:32.998Z,85.61
2022-12-01T14:32:26.657Z,86.53
2022-12-01T14:35:02.527Z,86.45
2022-12-01T14:37:38.436Z,86.06
2022-12-01T14:40:13.550Z,85.53
2022-12-01T14:43:03.011Z,86.41
2022-12-01T14:45:39.665Z,85.48
2022-12-01T14:48:13.787Z,85.43
2022-12-01T14:50:46.806Z,85.88
2022-12-01T14:53:26.054Z,86.77
2022-12-01T14:55:57.588Z,86.66
2022-12-01T14:58:29.504Z,86.40
2022-12-01T15:01:08.344Z,86.03
2022-12-01T15:03:42.490Z,86.82
2022-12-01T15:06:11.556Z,86.68
2022-12-01T15:08:45.696Z,86.78
2022-12-01T15:11:23.550Z,86.35
2022-12-01T15:13:54.575Z,87.18
2022-12-01T15:16:24.333Z,86.81
2022-12-01T15:18:52.952Z,86.64
2022-12-01T15:21:23.887Z,86.75
2022-12-01T15:23:57.167Z,86.62
2022-12-01T15:26:27.516Z,86.75
2022-12-01T15:29:16.924Z,86.62
2022-12-01T15:31:47.331Z,87.34
2022-12-01T15:34:18.538Z,86.72
2022-12-01T15:36:47.180Z,87.53
2022-12-01T15:39:17.557Z,86.76
2022-12-01T15:41:47.983Z,86.50
2022-12-01T15:44:22.525Z,86.86
2022-12-01T15:46:50.629Z,87.17
2022-12-01T15:49:20.429Z,87.12
2022-12-01T15:51:49.462Z,87.46
2022-12-01T15:54:20.902Z,86.96
2022-12-01T15:56:53.502Z,87.02
2022-12-01T15:59:29.817Z,87.36
2022-12-01T16:01:58.276Z,87.21
2022-12-01T16:04:28.316Z,86.75
2022-12-01T16:07:00.707Z,87.17
2022-12-01T16:09:33.192Z,86.73
2022-12-01T16:12:06.425Z,86.63
2022-12-01T16:14:37.350Z,88.02
2022-12-01T16:17:05.833Z,88.05
2022-12-01T16:19:35.970Z,86.94
2022-12-01T16:22:16.871Z,86.81
2022-12-01T16:24:48.502Z,86.75
2022-12-01T16:27:22.832Z,87.28
2022-12-01T16:29:54.721Z,87.11
2022-12-01T16:32:25.010Z,87.09
2022-12-01T16:34:54.254Z,86.68
2022-12-01T16:37:23.343Z,87.79
2022-12-01T16:39:51.490Z,87.13
2022-12-01T16:42:21.740Z,87.46
2022-12-01T16:44:50.579Z,88.12
2022-12-01T16:47:21.796Z,88.39
2022-12-01T16:49:50.322Z,87.89
2022-12-01T16:55:23.789Z,88.82
2022-12-01T16:57:52.325Z,89.83
2022-12-01T17:00:20.860Z,89.37
2022-12-01T17:02:50.446Z,88.96
2022-12-01T17:05:18.417Z,90.11
2022-12-01T17:07:46.343Z,90.01
2022-12-01T17:10:15.011Z,90.25
2022-12-01T17:12:42.849Z,90.18
2022-12-01T17:15:12.000Z,90.44
2022-12-01T17:17:40.036Z,90.62
2022-12-01T17:20:11.314Z,91.29
2022-12-01T17:22:39.281Z,91.15
2022-12-01T17:25:09.591Z,91.23
2022-12-01T17:27:37.590Z,91.43
2022-12-01T17:30:06.650Z,91.56
2022-12-01T17:32:34.616Z,91.67
2022-12-01T17:35:02.541Z,91.30
2022-12-01T17:37:31.831Z,91.44
2022-12-01T17:39:59.663Z,92.12
2022-12-01T17:42:27.449Z,91.21
2022-12-01T17:44:55.293Z,92.28
2022-12-01T17:47:24.156Z,92.27
2022-12-01T17:49:51.984Z,92.69
2022-12-01T17:52:22.163Z,92.30
2022-12-01T17:54:56.417Z,91.41
2022-12-01T17:57:24.312Z,92.15
2022-12-01T17:59:52.168Z,92.49
2022-12-01T18:02:20.726Z,92.80
2022-12-01T18:04:49.013Z,92.75
2022-12-01T18:07:17.232Z,92.55
2022-12-01T18:09:45.302Z,92.72
2022-12-01T18:12:14.468Z,93.05
2022-12-01T18:14:42.323Z,93.27
2022-12-01T18:17:10.205Z,93.17
2022-12-01T18:19:38.225Z,93.00
2022-12-01T18:22:06.066Z,92.48
2022-12-01T18:24:34.013Z,92.69
2022-12-01T18:27:01.851Z,92.83
2022-12-01T18:29:31.143Z,93.74
2022-12-01T18:32:00.912Z,93.18
2022-12-01T18:34:30.384Z,93.44
2022-12-01T18:36:58.559Z,92.71
2022-12-01T18:39:26.559Z,93.06
2022-12-01T18:41:55.349Z,92.73
2022-12-01T18:44:23.230Z,93.44
2022-12-01T18:46:52.707Z,93.06
2022-12-01T18:49:21.181Z,92.43
2022-12-01T18:51:49.001Z,93.39
2022-12-01T18:54:17.588Z,93.51
2022-12-01T18:56:45.394Z,93.16
2022-12-01T18:59:13.880Z,93.21
2022-12-01T19:01:45.872Z,92.64
2022-12-01T19:04:16.913Z,92.53
2022-12-01T19:06:46.639Z,92.74
2022-12-01T19:09:16.725Z,92.41
2022-12-01T19:11:44.921Z,92.74
2022-12-01T19:14:15.735Z,93.17
2022-12-01T19:16:43.752Z,93.72
2022-12-01T19:19:12.481Z,93.65
2022-12-01T19:21:42.796Z,93.40
2022-12-01T19:24:10.725Z,92.95
2022-12-01T19:26:38.754Z,93.37
2022-12-01T19:29:06.695Z,93.34
2022-12-01T19:31:34.659Z,93.20
2022-12-01T19:34:04.408Z,92.71
2022-12-01T19:36:32.296Z,92.63
2022-12-01T19:39:04.398Z,93.29
2022-12-01T19:41:38.049Z,93.40
2022-12-01T19:44:06.437Z,93.06
2022-12-01T19:46:34.579Z,93.26
2022-12-01T19:49:03.260Z,93.94
2022-12-01T19:51:35.012Z,92.84
2022-12-01T19:54:05.393Z,93.07
2022-12-01T19:56:33.319Z,92.98
2022-12-01T19:59:01.208Z,93.45
2022-12-01T20:01:30.488Z,93.40
2022-12-01T20:03:59.649Z,93.11
2022-12-01T20:06:29.203Z,92.77
2022-12-01T20:09:01.447Z,93.20
2022-12-01T20:11:32.709Z,93.62
2022-12-01T20:14:00.766Z,93.19
2022-12-01T20:16:30.523Z,93.86
2022-12-01T20:19:01.500Z,93.29
2022-12-01T20:21:31.452Z,93.20
2022-12-01T20:24:01.063Z,93.10
2022-12-01T20:26:34.082Z,93.42
2022-12-01T20:29:04.674Z,93.83
2022-12-01T20:31:33.706Z,93.07
2022-12-01T20:34:04.536Z,93.51
2022-12-01T20:36:32.849Z,94.15
2022-12-01T20:39:00.688Z,94.31
2022-12-01T20:41:30.097Z,94.25
2022-12-01T20:44:00.153Z,94.06
2022-12-01T20:46:31.806Z,93.60
2022-12-01T20:48:59.683Z,94.08
2022-12-01T20:51:27.635Z,93.58
2022-12-01T20:54:26.383Z,94.17
2022-12-01T20:56:44.788Z,93.66
2022-12-01T20:59:13.145Z,93.59
2022-12-01T21:01:41.182Z,93.94
2022-12-01T21:04:09.073Z,94.00
2022-12-01T21:06:37.046Z,93.72
2022-12-01T21:09:07.449Z,93.80
2022-12-01T21:11:55.152Z,94.34
2022-12-01T21:14:38.137Z,93.89
2022-12-01T21:17:18.739Z,94.32
2022-12-01T21:19:53.415Z,93.42
2022-12-01T21:22:21.287Z,93.73
2022-12-01T21:24:53.186Z,93.80
2022-12-01T21:27:21.347Z,94.17
2022-12-01T21:29:51.320Z,93.72
2022-12-01T21:32:20.953Z,94.25
2022-12-01T21:34:49.818Z,94.71
2022-12-01T21:37:22.347Z,93.68
2022-12-01T21:39:51.867Z,94.56
2022-12-01T21:42:21.781Z,93.39
2022-12-01T21:44:51.201Z,93.98
2022-12-01T21:47:21.517Z,94.94
2022-12-01T21:49:52.173Z,93.91
2022-12-01T21:52:22.655Z,94.47
2022-12-01T21:54:51.053Z,94.68
2022-12-01T21:57:34.513Z,94.21
2022-12-01T22:00:27.066Z,94.26
2022-12-01T22:03:28.056Z,94.24
2022-12-01T22:06:28.279Z,94.45
2022-12-01T22:08:50.767Z,94.89
2022-12-01T22:11:21.919Z,94.53
2022-12-01T22:13:54.964Z,95.18
2022-12-01T22:16:30.169Z,94.19
2022-12-01T22:19:00.720Z,94.64
2022-12-01T22:21:32.937Z,95.21
2022-12-01T22:24:19.163Z,95.00
2022-12-01T22:26:49.136Z,94.49
2022-12-01T22:29:31.050Z,94.67
2022-12-01T22:32:30.329Z,94.48
2022-12-01T22:35:01.821Z,95.13
2022-12-01T22:37:37.696Z,94.91
2022-12-01T22:40:34.645Z,94.47
2022-12-01T22:43:27.653Z,95.12
2022-12-01T22:46:06.375Z,94.36
2022-12-01T22:48:38.934Z,94.69
2022-12-01T22:51:37.647Z,94.79
2022-12-01T22:54:25.321Z,94.77
2022-12-01T22:57:02.946Z,94.70
2022-12-01T22:59:34.789Z,94.60
2022-12-01T23:02:13.505Z,95.25
2022-12-01T23:04:46.126Z,94.92
2022-12-01T23:07:33.353Z,95.38
2022-12-01T23:10:10.348Z,94.86
2022-12-01T23:12:38.927Z,95.41
2022-12-01T23:15:22.123Z,94.31
2022-12-01T23:17:50.662Z,95.12
2022-12-01T23:20:32.464Z,94.18
2022-12-01T23:23:02.415Z,94.96
2022-12-01T23:25:30.340Z,95.32
2022-12-01T23:28:01.320Z,94.90
2022-12-01T23:30:29.127Z,95.15
2022-12-01T23:33:22.922Z,95.03
2022-12-01T23:35:56.895Z,94.88
2022-12-01T23:38:26.161Z,94.50
2022-12-01T23:40:56.732Z,94.32
2022-12-01T23:43:28.218Z,94.40
2022-12-01T23:46:04.051Z,94.97
2022-12-01T23:48:36.313Z,94.38
2022-12-01T23:51:06.154Z,95.01
2022-12-01T23:53:34.336Z,94.52
2022-12-01T23:56:13.031Z,95.06
2022-12-01T23:58:40.939Z,94.21
